Time;durP1;ratioP1;P1;durP2;ratioP2;P2;SDS_P1;SDS_P2;PMS_P1;PMS_P2;Temp;Humidity;BMP_temperature;BMP_pressure;BME280_temperature;BME280_humidity;BME280_pressure;Samples;Min_cycle;Max_cycle;Signal;HPM_P1;HPM_P2
2022/04/30 00:02:13;;;;;;;8.13;4.78;;;8.30;99.70;;;;;;4978096;28;20082;-57
2022/04/30 00:04:44;;;;;;;5.63;3.85;;;8.40;99.90;;;;;;4989542;28;20050;-56
2022/04/30 00:07:16;;;;;;;11.18;4.15;;;8.50;99.70;;;;;;4989098;28;20050;-58
2022/04/30 00:09:43;;;;;;;10.27;3.60;;;8.50;99.90;;;;;;4988986;28;20580;-56
2022/04/30 00:12:10;;;;;;;9.10;3.83;;;8.50;99.80;;;;;;4988371;28;20577;-57
2022/04/30 00:14:37;;;;;;;7.38;3.72;;;8.50;99.80;;;;;;4990365;28;20090;-57
2022/04/30 00:17:04;;;;;;;5.45;3.40;;;8.60;99.90;;;;;;4989806;28;20058;-57
2022/04/30 00:19:31;;;;;;;5.13;3.88;;;8.60;99.70;;;;;;4985433;28;20513;-55
2022/04/30 00:21:58;;;;;;;8.95;3.67;;;8.60;99.60;;;;;;4988833;28;20054;-56
2022/04/30 00:24:26;;;;;;;6.40;3.35;;;8.70;99.60;;;;;;4989929;28;20042;-56
2022/04/30 00:26:53;;;;;;;6.63;3.47;;;8.70;99.50;;;;;;4989930;28;20213;-53
2022/04/30 00:29:19;;;;;;;5.20;3.22;;;8.70;99.50;;;;;;4990039;28;20081;-57
2022/04/30 00:31:46;;;;;;;3.35;2.60;;;8.60;99.60;;;;;;4990356;28;20106;-55
2022/04/30 00:34:13;;;;;;;8.15;3.22;;;8.70;99.50;;;;;;4989609;28;20054;-57
2022/04/30 00:36:40;;;;;;;10.05;3.70;;;8.70;99.50;;;;;;5004642;28;20092;-56
2022/04/30 00:39:06;;;;;;;6.15;3.00;;;8.70;99.40;;;;;;4988435;28;20073;-57
2022/04/30 00:41:33;;;;;;;9.85;2.80;;;8.70;99.40;;;;;;4989762;28;20125;-57
2022/04/30 00:44:00;;;;;;;8.30;3.33;;;8.70;99.40;;;;;;4989430;28;20085;-56
2022/04/30 00:46:35;;;;;;;7.13;3.89;;;8.70;99.40;;;;;;4896805;28;10000746;-57
2022/04/30 00:49:02;;;;;;;6.05;3.70;;;8.70;99.50;;;;;;4986093;28;20261;-58
2022/04/30 00:51:29;;;;;;;6.30;3.35;;;8.70;99.60;;;;;;4987904;28;20054;-57
2022/04/30 00:53:56;;;;;;;7.07;4.13;;;8.70;99.60;;;;;;4989176;28;20142;-58
2022/04/30 00:56:29;;;;;;;9.75;5.68;;;8.60;99.60;;;;;;4985957;28;20083;-57
2022/04/30 00:58:58;;;;;;;4.57;3.40;;;8.60;99.70;;;;;;4984052;28;20593;-58
2022/04/30 01:01:25;;;;;;;8.40;3.72;;;8.60;99.60;;;;;;4984846;28;20129;-57
2022/04/30 01:03:52;;;;;;;5.50;3.40;;;8.60;99.70;;;;;;4986916;28;20042;-55
2022/04/30 01:06:22;;;;;;;11.45;3.92;;;8.60;99.70;;;;;;4987774;28;20154;-57
2022/04/30 01:08:49;;;;;;;7.05;4.43;;;8.60;99.70;;;;;;4987404;28;20086;-57
2022/04/30 01:11:16;;;;;;;9.75;4.32;;;8.60;99.70;;;;;;4988438;28;20129;-56
2022/04/30 01:13:43;;;;;;;8.73;4.00;;;8.60;99.70;;;;;;4987284;28;20050;-59
2022/04/30 01:16:11;;;;;;;10.15;3.90;;;8.50;99.70;;;;;;4988984;28;20046;-58
2022/04/30 01:18:38;;;;;;;10.95;4.13;;;8.50;99.80;;;;;;4986556;28;20050;-58
2022/04/30 01:21:12;;;;;;;10.38;4.32;;;8.50;99.80;;;;;;4985179;28;20051;-56
2022/04/30 01:23:43;;;;;;;8.95;4.28;;;8.40;99.90;;;;;;4968393;28;20129;-57
2022/04/30 01:26:10;;;;;;;7.65;4.60;;;8.40;99.90;;;;;;4987346;28;20153;-56
2022/04/30 01:28:37;;;;;;;8.35;4.97;;;8.40;99.90;;;;;;4989036;28;20104;-57
2022/04/30 01:37:22;;;;;;;7.72;4.50;;;8.40;99.90;;;;;;4987352;28;20581;-58
2022/04/30 01:39:22;;;;;;;6.47;3.95;;;8.40;99.90;;;;;;4988062;28;20051;-56
2022/04/30 01:41:48;;;;;;;6.53;4.32;;;8.40;99.90;;;;;;4988400;28;20133;-58
2022/04/30 01:44:19;;;;;;;10.82;4.53;;;8.30;99.90;;;;;;4988665;28;20077;-57
2022/04/30 01:46:47;;;;;;;8.38;4.75;;;8.30;99.90;;;;;;4988253;28;20057;-58
2022/04/30 01:49:16;;;;;;;7.07;3.97;;;8.30;99.90;;;;;;4988722;28;20498;-58
2022/04/30 01:51:50;;;;;;;10.27;4.50;;;8.30;99.90;;;;;;4987082;28;20043;-57
2022/04/30 01:54:17;;;;;;;;;;;8.30;99.90;;;;;;4969729;28;20113;-58
2022/04/30 01:56:44;;;;;;;11.00;3.95;;;8.20;99.90;;;;;;4983082;28;19969;-60
2022/04/30 01:59:12;;;;;;;9.95;4.95;;;8.20;99.90;;;;;;4988238;28;20112;-57
2022/04/30 02:01:39;;;;;;;8.30;4.70;;;8.20;99.90;;;;;;4988123;28;20121;-57
2022/04/30 02:04:06;;;;;;;7.20;4.45;;;8.10;99.90;;;;;;4987536;28;20054;-57
2022/04/30 02:06:33;;;;;;;7.95;4.43;;;8.20;99.90;;;;;;4987671;28;20046;-58
2022/04/30 02:08:59;;;;;;;11.68;4.43;;;8.20;99.90;;;;;;4986515;28;20096;-56
2022/04/30 02:11:26;;;;;;;11.68;4.25;;;8.10;99.90;;;;;;4986403;28;20085;-58
2022/04/30 02:13:53;;;;;;;13.75;4.50;;;8.10;99.90;;;;;;4987942;28;20142;-58
2022/04/30 02:16:23;;;;;;;9.00;4.28;;;8.00;99.90;;;;;;4986990;28;20050;-57
2022/04/30 02:18:50;;;;;;;6.68;4.10;;;8.00;99.90;;;;;;4988060;28;20101;-58
2022/04/30 02:21:20;;;;;;;7.93;4.43;;;8.00;99.90;;;;;;4987982;28;20549;-57
2022/04/30 02:23:48;;;;;;;7.28;3.85;;;8.00;99.90;;;;;;4986837;28;20528;-58
2022/04/30 02:26:15;;;;;;;5.70;3.95;;;8.00;99.90;;;;;;4989343;28;20081;-56
2022/04/30 02:28:42;;;;;;;7.97;3.65;;;7.90;99.90;;;;;;4983261;28;20134;-55
2022/04/30 02:31:26;;;;;;;8.93;4.22;;;8.00;99.90;;;;;;4992069;28;20097;-57
2022/04/30 02:33:56;;;;;;;9.13;4.00;;;8.00;99.90;;;;;;4989055;28;20053;-57
2022/04/30 02:36:26;;;;;;;7.47;4.13;;;8.00;99.90;;;;;;4991842;28;20405;-55
2022/04/30 02:38:54;;;;;;;7.32;3.92;;;8.00;99.90;;;;;;4991408;28;20458;-56
2022/04/30 02:41:21;;;;;;;8.88;3.95;;;8.00;99.90;;;;;;4991824;28;20497;-56
2022/04/30 02:43:50;;;;;;;4.55;3.70;;;8.00;99.90;;;;;;4991548;28;20054;-57
2022/04/30 02:46:17;;;;;;;11.90;3.85;;;8.00;99.90;;;;;;4992327;28;20125;-56
2022/04/30 02:48:44;;;;;;;6.32;3.50;;;8.00;99.90;;;;;;4984224;28;20054;-57
2022/04/30 02:51:11;;;;;;;8.52;4.05;;;8.00;99.90;;;;;;4972452;28;20126;-56
2022/04/30 02:53:38;;;;;;;5.88;3.67;;;7.90;99.90;;;;;;4985340;28;20085;-57
2022/04/30 02:56:05;;;;;;;6.28;3.28;;;7.90;99.90;;;;;;4991696;28;20086;-59
2022/04/30 03:01:19;;;;;;;9.68;4.10;;;7.80;99.90;;;;;;4992146;28;20811;-57
2022/04/30 03:03:47;;;;;;;5.32;3.78;;;7.80;99.90;;;;;;4990797;28;20049;-58
2022/04/30 03:06:17;;;;;;;6.20;3.55;;;7.70;99.90;;;;;;4991197;28;20486;-56
2022/04/30 03:08:47;;;;;;;7.68;4.03;;;7.60;99.90;;;;;;4989862;28;20046;-58
2022/04/30 03:11:14;;;;;;;12.98;4.57;;;7.60;99.90;;;;;;4990769;28;20138;-56
2022/04/30 03:13:40;;;;;;;7.35;3.85;;;7.60;99.90;;;;;;4990800;28;20081;-57
2022/04/30 03:21:42;;;;;;;9.38;4.00;;;7.40;99.90;;;;;;5004158;28;20141;-58
2022/04/30 03:24:09;;;;;;;6.25;3.30;;;7.50;99.90;;;;;;4990866;28;20149;-58
2022/04/30 03:26:36;;;;;;;5.22;3.90;;;7.40;99.90;;;;;;4991116;28;20572;-57
2022/04/30 03:29:06;;;;;;;4.95;3.45;;;7.30;99.90;;;;;;4990890;28;20058;-57
2022/04/30 03:31:32;;;;;;;8.50;4.13;;;7.30;99.90;;;;;;4991075;28;20458;-56
2022/04/30 03:33:59;;;;;;;7.13;3.70;;;7.30;99.90;;;;;;4990635;28;20441;-58
2022/04/30 03:36:26;;;;;;;5.65;3.78;;;7.20;99.90;;;;;;4991131;28;20485;-56
2022/04/30 03:38:53;;;;;;;6.22;3.25;;;7.10;99.90;;;;;;4989952;28;20054;-56
2022/04/30 03:41:20;;;;;;;5.28;3.00;;;7.00;99.90;;;;;;4990740;28;20050;-57
2022/04/30 03:43:46;;;;;;;6.68;4.78;;;6.80;99.90;;;;;;4990489;28;20133;-58
2022/04/30 03:46:13;;;;;;;7.18;3.90;;;6.80;99.90;;;;;;4990737;28;20555;-57
2022/04/30 03:48:40;;;;;;;8.05;4.00;;;6.70;99.90;;;;;;4990802;28;20046;-57
2022/04/30 03:51:07;;;;;;;8.25;4.78;;;6.70;99.90;;;;;;4989289;28;20070;-57
2022/04/30 03:53:33;;;;;;;7.53;3.90;;;6.70;99.90;;;;;;4990609;28;20058;-58
2022/04/30 03:56:01;;;;;;;5.85;4.00;;;6.70;99.90;;;;;;4990249;28;20121;-55
2022/04/30 03:58:27;;;;;;;9.48;4.20;;;6.70;99.90;;;;;;4989248;28;20065;-54
2022/04/30 04:00:54;;;;;;;10.40;4.07;;;6.70;99.90;;;;;;4989146;28;20134;-58
2022/04/30 04:03:21;;;;;;;7.22;3.65;;;6.70;99.90;;;;;;4986385;28;20482;-56
2022/04/30 04:05:51;;;;;;;8.02;3.05;;;6.70;99.90;;;;;;4989713;28;20085;-57
2022/04/30 04:08:20;;;;;;;7.07;4.18;;;6.70;99.90;;;;;;4987736;28;20141;-56
2022/04/30 04:10:47;;;;;;;7.55;3.63;;;6.60;99.90;;;;;;4988885;28;20096;-55
2022/04/30 04:18:44;;;;;;;10.25;4.18;;;6.50;99.90;;;;;;4990099;28;20549;-57
2022/04/30 04:21:11;;;;;;;8.98;3.47;;;6.50;99.90;;;;;;4989930;28;20142;-56
2022/04/30 04:26:23;;;;;;;8.45;3.03;;;6.40;99.90;;;;;;4989746;28;20046;-56
2022/04/30 04:28:50;;;;;;;6.50;4.35;;;6.40;99.90;;;;;;4990058;28;20082;-55
2022/04/30 04:31:22;;;;;;;6.32;4.15;;;6.40;99.90;;;;;;4989801;28;20049;-54
2022/04/30 04:33:49;;;;;;;12.77;4.03;;;6.40;99.90;;;;;;4990079;28;20050;-57
2022/04/30 04:36:17;;;;;;;4.70;3.53;;;6.40;99.90;;;;;;4989586;28;20077;-57
2022/04/30 04:38:44;;;;;;;9.48;4.22;;;6.40;99.90;;;;;;4977504;28;20061;-57
2022/04/30 04:41:12;;;;;;;7.85;4.35;;;6.40;99.90;;;;;;4976211;28;20129;-57
2022/04/30 04:43:39;;;;;;;8.80;3.97;;;6.40;99.90;;;;;;4989779;28;20081;-57
2022/04/30 04:46:06;;;;;;;9.52;4.22;;;6.40;99.90;;;;;;4989692;28;20125;-56
2022/04/30 04:48:33;;;;;;;9.95;4.20;;;6.40;99.90;;;;;;4987734;28;20085;-56
2022/04/30 04:51:00;;;;;;;8.18;4.93;;;6.60;99.90;;;;;;4989502;28;20046;-57
2022/04/30 04:53:27;;;;;;;7.15;4.38;;;6.50;99.90;;;;;;4988353;28;20065;-56
2022/04/30 04:55:53;;;;;;;5.15;3.63;;;6.50;99.90;;;;;;4987987;28;20141;-58
2022/04/30 04:58:20;;;;;;;8.50;5.43;;;6.50;99.90;;;;;;4989056;28;20090;-54
2022/04/30 05:00:48;;;;;;;12.85;4.80;;;6.50;99.90;;;;;;4989515;28;20061;-58
2022/04/30 05:03:15;;;;;;;14.40;4.72;;;6.60;99.90;;;;;;4988779;28;20050;-58
2022/04/30 05:05:41;;;;;;;8.18;4.13;;;6.60;99.90;;;;;;4989056;28;20459;-55
2022/04/30 05:08:08;;;;;;;5.82;4.00;;;6.60;99.90;;;;;;4984340;28;20137;-55
2022/04/30 05:10:36;;;;;;;10.35;4.38;;;6.60;99.90;;;;;;4987086;28;20133;-55
2022/04/30 05:13:03;;;;;;;8.45;4.68;;;6.60;99.90;;;;;;4988812;28;20061;-55
2022/04/30 05:15:30;;;;;;;6.18;3.80;;;6.60;99.90;;;;;;4989384;28;20081;-55
2022/04/30 05:17:58;;;;;;;6.57;3.95;;;6.60;99.90;;;;;;4988825;28;20137;-53
2022/04/30 05:20:25;;;;;;;8.20;4.78;;;6.60;99.90;;;;;;4989087;28;20104;-55
2022/04/30 05:23:08;;;;;;;6.80;4.25;;;6.70;99.90;;;;;;4989278;28;20164;-57
2022/04/30 05:25:36;;;;;;;8.05;3.67;;;6.80;99.90;;;;;;4988973;28;20046;-58
2022/04/30 05:28:03;;;;;;;12.50;3.80;;;6.90;99.90;;;;;;4988849;28;20042;-56
2022/04/30 05:30:29;;;;;;;6.82;4.30;;;6.80;99.90;;;;;;4988742;28;20081;-57
2022/04/30 05:32:56;;;;;;;6.82;4.20;;;6.80;99.90;;;;;;4989101;28;20074;-56
2022/04/30 05:35:23;;;;;;;7.95;3.78;;;6.80;99.90;;;;;;4989161;28;20081;-54
2022/04/30 05:37:50;;;;;;;5.70;3.40;;;6.80;99.90;;;;;;4987989;28;20096;-57
2022/04/30 05:40:18;;;;;;;8.40;3.90;;;6.90;99.90;;;;;;4988191;28;20141;-56
2022/04/30 05:42:44;;;;;;;5.93;3.53;;;6.90;99.90;;;;;;4988434;28;20577;-56
2022/04/30 05:45:11;;;;;;;8.30;4.15;;;7.00;99.90;;;;;;4988782;28;20054;-57
2022/04/30 05:47:38;;;;;;;5.10;3.58;;;7.00;99.90;;;;;;4988130;28;20046;-55
2022/04/30 05:50:09;;;;;;;7.35;3.35;;;7.10;99.90;;;;;;4988477;28;20547;-57
2022/04/30 05:52:36;;;;;;;6.35;3.60;;;7.10;99.90;;;;;;4988885;28;20046;-57
2022/04/30 05:55:03;;;;;;;3.85;3.30;;;7.30;99.90;;;;;;4988352;28;20054;-57
2022/04/30 05:57:31;;;;;;;7.80;4.07;;;7.30;99.90;;;;;;4988396;28;20077;-58
2022/04/30 05:59:58;;;;;;;11.90;3.40;;;7.40;99.90;;;;;;4987639;28;20145;-55
2022/04/30 06:02:24;;;;;;;7.13;3.80;;;7.40;99.90;;;;;;4987749;28;20081;-55
2022/04/30 06:04:52;;;;;;;17.58;4.13;;;7.50;99.90;;;;;;4987762;28;20073;-57
2022/04/30 06:07:18;;;;;;;8.02;4.13;;;7.50;99.90;;;;;;4980776;28;20047;-55
2022/04/30 06:09:45;;;;;;;12.60;3.75;;;7.60;99.90;;;;;;4978250;28;20390;-57
2022/04/30 06:12:12;;;;;;;7.47;3.40;;;7.60;99.90;;;;;;4987480;28;20081;-56
2022/04/30 06:14:39;;;;;;;8.10;3.38;;;7.60;99.90;;;;;;4987951;28;20086;-56
2022/04/30 06:17:06;;;;;;;4.38;3.30;;;7.70;99.90;;;;;;4988176;28;20108;-56
2022/04/30 06:19:33;;;;;;;8.40;3.47;;;7.70;99.90;;;;;;4988021;28;20137;-56
2022/04/30 06:21:59;;;;;;;4.43;3.10;;;7.80;99.90;;;;;;4988389;28;20129;-57
2022/04/30 06:24:26;;;;;;;7.13;3.75;;;7.90;99.90;;;;;;4987299;28;20042;-58
2022/04/30 06:26:53;;;;;;;6.00;3.03;;;7.90;99.90;;;;;;4986795;28;20097;-57
2022/04/30 06:29:22;;;;;;;6.00;3.95;;;7.90;99.90;;;;;;4978635;28;20121;-57
2022/04/30 06:31:51;;;;;;;8.85;3.92;;;8.00;99.90;;;;;;4981662;28;20073;-57
2022/04/30 06:34:18;;;;;;;7.63;3.58;;;7.90;99.90;;;;;;4977744;28;20050;-57
2022/04/30 06:36:45;;;;;;;11.18;4.60;;;8.00;99.90;;;;;;4982503;28;20051;-52
2022/04/30 06:39:13;;;;;;;8.18;3.88;;;8.00;99.90;;;;;;4978396;28;20074;-57
2022/04/30 06:41:39;;;;;;;10.52;4.30;;;8.00;99.90;;;;;;4980788;28;20133;-58
2022/04/30 06:44:06;;;;;;;7.50;3.80;;;8.10;99.90;;;;;;4980237;28;20197;-56
2022/04/30 06:46:33;;;;;;;9.63;4.93;;;8.10;99.90;;;;;;4978798;28;20074;-55
2022/04/30 06:49:00;;;;;;;6.72;4.03;;;8.20;99.90;;;;;;4980586;28;20839;-57
2022/04/30 06:51:27;;;;;;;12.05;4.50;;;8.30;99.90;;;;;;4981285;28;20084;-57
2022/04/30 06:59:27;;;;;;;6.85;4.07;;;8.40;99.90;;;;;;4981530;28;20140;-57
2022/04/30 07:04:24;;;;;;;6.88;3.80;;;8.40;99.90;;;;;;4984829;28;20047;-56
2022/04/30 07:06:51;;;;;;;23.60;4.10;;;8.40;99.90;;;;;;4980249;28;20074;-58
2022/04/30 07:09:18;;;;;;;6.80;3.40;;;8.50;99.90;;;;;;4982375;28;20080;-57
2022/04/30 07:11:45;;;;;;;9.02;3.70;;;8.50;99.90;;;;;;4983866;28;20046;-57
2022/04/30 07:14:12;;;;;;;8.90;3.80;;;8.60;99.90;;;;;;4987334;28;20105;-56
2022/04/30 07:16:39;;;;;;;10.32;4.57;;;8.70;99.90;;;;;;4985437;28;20074;-57
2022/04/30 07:19:06;;;;;;;7.28;4.20;;;8.70;99.90;;;;;;4990225;28;20125;-56
2022/04/30 07:21:33;;;;;;;7.45;3.83;;;8.70;99.90;;;;;;4988487;28;20085;-55
2022/04/30 07:24:00;;;;;;;7.10;4.30;;;8.80;99.90;;;;;;4988615;28;20502;-57
2022/04/30 07:26:26;;;;;;;7.28;4.13;;;8.90;99.90;;;;;;4989246;28;20162;-58
2022/04/30 07:28:53;;;;;;;9.68;4.60;;;8.90;99.90;;;;;;4987784;28;20125;-58
2022/04/30 07:31:20;;;;;;;8.70;3.80;;;8.90;99.90;;;;;;4988869;28;20129;-59
2022/04/30 07:33:48;;;;;;;12.75;3.53;;;8.90;99.90;;;;;;4988131;28;20070;-58
2022/04/30 07:36:14;;;;;;;14.50;3.78;;;9.00;99.90;;;;;;4988296;28;20042;-56
2022/04/30 07:38:41;;;;;;;7.35;4.15;;;9.10;99.90;;;;;;4988625;28;20046;-57
2022/04/30 07:41:08;;;;;;;4.97;3.17;;;9.10;99.90;;;;;;4989408;28;20051;-59
2022/04/30 07:43:35;;;;;;;9.10;3.67;;;9.10;99.90;;;;;;4988858;28;20173;-54
2022/04/30 07:46:02;;;;;;;9.48;4.00;;;9.10;99.90;;;;;;4985297;28;20093;-58
2022/04/30 07:48:34;;;;;;;7.18;3.80;;;9.20;99.90;;;;;;4981363;28;20130;-58
2022/04/30 07:51:00;;;;;;;10.35;4.15;;;9.20;99.90;;;;;;4983327;28;20116;-59
2022/04/30 07:53:28;;;;;;;9.77;4.55;;;9.30;99.90;;;;;;4988608;28;20089;-57
2022/04/30 07:55:55;;;;;;;11.25;3.78;;;9.40;99.90;;;;;;4988134;28;20096;-58
2022/04/30 07:58:22;;;;;;;12.57;4.97;;;9.40;99.90;;;;;;4988607;28;20125;-57
2022/04/30 08:00:48;;;;;;;6.13;4.22;;;9.40;99.90;;;;;;4986943;28;20159;-57
2022/04/30 08:03:15;;;;;;;11.05;3.83;;;9.40;99.90;;;;;;4987163;28;20501;-56
2022/04/30 08:05:42;;;;;;;10.60;4.68;;;9.50;99.90;;;;;;4986046;28;20137;-57
2022/04/30 08:08:09;;;;;;;8.15;4.82;;;9.50;99.90;;;;;;4982247;28;20078;-57
2022/04/30 08:10:36;;;;;;;11.25;4.25;;;9.60;99.90;;;;;;4640975;28;9999824;-54
2022/04/30 08:13:03;;;;;;;9.50;4.55;;;9.60;99.90;;;;;;4978433;28;20050;-58
2022/04/30 08:15:29;;;;;;;9.55;4.18;;;9.70;99.90;;;;;;4984412;28;20787;-56
2022/04/30 08:17:56;;;;;;;8.07;4.85;;;9.70;99.90;;;;;;4984765;28;20046;-53
2022/04/30 08:20:23;;;;;;;14.65;5.00;;;9.80;99.90;;;;;;4984478;28;20050;-57
2022/04/30 08:22:50;;;;;;;7.05;4.78;;;9.90;99.90;;;;;;4984412;28;20050;-57
2022/04/30 08:25:17;;;;;;;6.00;3.88;;;10.00;99.90;;;;;;4985450;28;20221;-56
2022/04/30 08:27:44;;;;;;;7.80;4.20;;;10.00;99.90;;;;;;4985534;28;20082;-58
2022/04/30 08:30:11;;;;;;;9.15;4.75;;;10.10;99.90;;;;;;4986380;28;20050;-58
2022/04/30 08:32:38;;;;;;;7.22;4.25;;;10.10;99.90;;;;;;4987238;28;20050;-56
2022/04/30 08:35:05;;;;;;;19.75;5.38;;;10.20;99.90;;;;;;4985312;28;20042;-57
2022/04/30 08:37:52;;;;;;;12.05;4.45;;;10.10;99.90;;;;;;4980600;28;20050;-55
2022/04/30 08:40:19;;;;;;;10.40;4.32;;;10.10;99.90;;;;;;4984882;28;20536;-57
2022/04/30 08:42:46;;;;;;;7.55;4.72;;;10.20;99.90;;;;;;4983965;28;20536;-57
2022/04/30 08:45:12;;;;;;;6.30;4.57;;;10.20;99.90;;;;;;4983921;28;20406;-59
2022/04/30 08:47:46;;;;;;;14.90;5.20;;;10.30;99.90;;;;;;4984290;28;20149;-57
2022/04/30 08:50:14;;;;;;;11.07;6.10;;;10.30;99.90;;;;;;4984383;28;20078;-56
2022/04/30 08:52:41;;;;;;;10.38;5.10;;;10.50;99.90;;;;;;4986394;28;20133;-59
2022/04/30 08:55:09;;;;;;;7.70;4.88;;;10.60;99.90;;;;;;4985927;28;20070;-56
2022/04/30 08:57:35;;;;;;;11.60;5.07;;;10.50;99.90;;;;;;4985762;28;20516;-58
2022/04/30 09:00:04;;;;;;;6.82;4.28;;;10.60;99.90;;;;;;4985054;28;20065;-59
2022/04/30 09:02:31;;;;;;;11.10;4.05;;;10.70;99.90;;;;;;4982795;28;20086;-56
2022/04/30 09:04:58;;;;;;;11.73;4.78;;;10.80;99.90;;;;;;4986306;28;20112;-57
2022/04/30 09:07:26;;;;;;;14.05;4.78;;;10.80;99.60;;;;;;4985913;28;20039;-59
2022/04/30 09:09:57;;;;;;;6.47;4.20;;;10.90;99.80;;;;;;4986371;28;20525;-59
2022/04/30 09:12:24;;;;;;;6.60;4.80;;;10.90;99.80;;;;;;4986176;28;20054;-58
2022/04/30 09:14:51;;;;;;;8.88;4.38;;;11.00;99.60;;;;;;4983573;28;20124;-57
2022/04/30 09:17:18;;;;;;;7.40;4.38;;;11.10;99.50;;;;;;4983688;28;20121;-59
2022/04/30 09:19:51;;;;;;;6.28;3.78;;;11.20;99.10;;;;;;4987062;28;20403;-59
2022/04/30 09:22:29;;;;;;;7.32;4.25;;;11.10;98.90;;;;;;4986581;28;20088;-58
2022/04/30 09:24:55;;;;;;;6.05;4.22;;;11.20;98.20;;;;;;4985729;28;20077;-58
2022/04/30 09:27:44;;;;;;;6.90;4.57;;;11.40;99.10;;;;;;4987826;28;20520;-55
2022/04/30 09:30:29;;;;;;;8.60;4.30;;;11.40;98.70;;;;;;4985059;28;20505;-56
2022/04/30 09:33:06;;;;;;;16.02;5.38;;;11.40;98.60;;;;;;4985614;28;20069;-58
2022/04/30 09:38:24;;;;;;;12.45;4.45;;;11.80;98.50;;;;;;4986973;28;20054;-54
2022/04/30 09:40:54;;;;;;;7.55;4.32;;;11.90;97.70;;;;;;4636515;28;9999815;-53
2022/04/30 09:43:30;;;;;;;9.90;4.03;;;11.90;98.20;;;;;;4984301;28;20136;-55
2022/04/30 09:46:05;;;;;;;8.15;4.38;;;12.10;97.90;;;;;;4968148;28;20050;-56
2022/04/30 09:54:05;;;;;;;10.13;4.70;;;13.10;97.30;;;;;;4983253;28;20047;-55
2022/04/30 09:56:44;;;;;;;8.18;4.53;;;13.20;97.10;;;;;;4984023;28;20100;-57
2022/04/30 09:59:13;;;;;;;5.60;3.58;;;13.40;95.60;;;;;;4982507;28;20092;-57
2022/04/30 10:01:41;;;;;;;7.90;4.20;;;13.90;96.10;;;;;;4985300;28;20458;-57
2022/04/30 10:04:17;;;;;;;7.10;3.75;;;13.90;95.80;;;;;;4984921;28;20536;-56
2022/04/30 10:06:44;;;;;;;8.48;4.38;;;14.10;94.40;;;;;;4981369;28;20047;-57
2022/04/30 10:09:21;;;;;;;10.63;4.38;;;14.40;96.00;;;;;;4985451;28;20054;-57
2022/04/30 10:12:06;;;;;;;7.95;4.50;;;14.40;94.90;;;;;;4982957;28;20050;-57
2022/04/30 10:14:50;;;;;;;10.40;3.55;;;14.60;94.80;;;;;;4973256;28;20173;-57
2022/04/30 10:17:19;;;;;;;7.07;3.20;;;15.00;95.20;;;;;;4985090;28;20050;-53
2022/04/30 10:20:15;;;;;;;9.38;4.07;;;15.00;94.70;;;;;;4973712;28;20137;-56
2022/04/30 10:22:53;;;;;;;9.30;5.03;;;15.10;91.90;;;;;;4985391;28;20121;-56
2022/04/30 10:25:48;;;;;;;10.63;4.63;;;15.40;92.60;;;;;;4984135;28;20109;-60
2022/04/30 10:28:15;;;;;;;9.10;4.50;;;15.50;90.60;;;;;;4973910;28;20050;-57
2022/04/30 10:31:07;;;;;;;9.45;4.60;;;15.40;94.20;;;;;;4981020;28;20042;-57
2022/04/30 10:33:34;;;;;;;14.13;6.57;;;15.40;90.50;;;;;;4983296;28;20049;-58
2022/04/30 10:36:07;;;;;;;7.72;3.72;;;15.10;93.60;;;;;;4980459;28;20042;-58
2022/04/30 10:38:34;;;;;;;8.80;4.10;;;14.60;91.80;;;;;;4983354;28;20501;-58
2022/04/30 10:41:02;;;;;;;8.93;4.47;;;14.40;94.10;;;;;;4981968;28;20061;-58
2022/04/30 10:43:35;;;;;;;9.50;4.13;;;14.20;94.00;;;;;;4984337;28;20478;-58
2022/04/30 10:46:03;;;;;;;7.68;4.05;;;14.10;94.20;;;;;;4975356;28;20422;-58
2022/04/30 10:48:32;;;;;;;8.93;3.80;;;14.00;93.90;;;;;;4987521;28;20050;-57
2022/04/30 10:51:05;;;;;;;6.25;4.35;;;13.90;93.70;;;;;;4988676;28;20054;-59
2022/04/30 10:53:32;;;;;;;7.63;3.83;;;13.90;93.80;;;;;;4988500;28;20134;-58
2022/04/30 10:56:03;;;;;;;13.20;4.00;;;14.10;93.80;;;;;;4980119;28;20109;-57
2022/04/30 10:58:34;;;;;;;10.75;4.60;;;14.00;94.00;;;;;;4986986;28;20137;-58
2022/04/30 11:01:30;;;;;;;7.18;4.47;;;13.80;92.40;;;;;;4986659;28;20089;-57
2022/04/30 11:03:57;;;;;;;10.68;4.38;;;13.70;93.40;;;;;;4982391;28;20558;-55
2022/04/30 11:06:25;;;;;;;8.07;4.70;;;13.70;94.00;;;;;;4994170;28;20141;-57
2022/04/30 11:09:05;;;;;;;9.65;4.25;;;13.80;93.60;;;;;;4988283;28;20074;-55
2022/04/30 11:11:33;;;;;;;7.82;4.18;;;13.70;93.50;;;;;;4981402;28;20104;-58
2022/04/30 11:14:05;;;;;;;7.20;4.72;;;13.80;94.30;;;;;;4986664;28;20046;-56
2022/04/30 11:16:41;;;;;;;6.43;4.70;;;13.80;93.90;;;;;;4987229;28;20086;-57
2022/04/30 11:19:10;;;;;;;10.30;4.07;;;13.70;93.80;;;;;;4988241;28;20079;-56
2022/04/30 11:21:39;;;;;;;11.43;5.30;;;13.70;93.50;;;;;;4988195;28;20081;-56
2022/04/30 11:24:06;;;;;;;8.07;4.82;;;13.60;94.00;;;;;;4987780;28;20491;-58
2022/04/30 11:26:40;;;;;;;9.85;5.13;;;13.70;93.30;;;;;;4996318;28;20093;-57
2022/04/30 11:29:11;;;;;;;7.65;4.80;;;13.60;93.40;;;;;;4986727;28;20312;-61
2022/04/30 11:31:38;;;;;;;12.35;4.07;;;13.60;93.70;;;;;;4986765;28;20124;-55
2022/04/30 11:34:12;;;;;;;10.90;4.32;;;13.80;94.10;;;;;;4985461;28;20054;-56
2022/04/30 11:36:49;;;;;;;7.15;4.65;;;13.90;93.10;;;;;;4986656;28;20524;-59
2022/04/30 11:39:18;;;;;;;14.73;4.00;;;13.90;92.80;;;;;;4986828;28;20153;-58
2022/04/30 11:41:46;;;;;;;6.35;4.28;;;14.00;93.80;;;;;;4986364;28;20082;-55
2022/04/30 11:44:14;;;;;;;11.32;4.60;;;14.20;93.80;;;;;;4986212;28;20066;-57
2022/04/30 11:46:41;;;;;;;6.03;3.83;;;14.40;92.90;;;;;;4985593;28;20046;-57
2022/04/30 11:49:09;;;;;;;6.85;3.88;;;14.40;93.00;;;;;;4967537;28;20054;-59
2022/04/30 11:51:56;;;;;;;7.43;4.53;;;14.50;92.50;;;;;;4985125;28;20054;-56
2022/04/30 11:54:23;;;;;;;8.88;4.75;;;14.40;92.70;;;;;;4987412;28;20051;-57
2022/04/30 11:56:51;;;;;;;6.78;4.75;;;14.40;93.30;;;;;;4987276;28;20100;-55
2022/04/30 11:59:31;;;;;;;8.68;3.80;;;14.60;92.90;;;;;;4986276;28;20389;-57
2022/04/30 12:02:05;;;;;;;9.55;4.72;;;14.80;92.50;;;;;;4986657;28;20421;-54
2022/04/30 12:04:36;;;;;;;15.68;4.63;;;14.90;90.90;;;;;;4980755;28;20078;-58
2022/04/30 12:07:07;;;;;;;12.55;4.40;;;15.00;91.10;;;;;;4980533;28;20054;-63
2022/04/30 12:09:38;;;;;;;8.77;4.72;;;14.90;91.30;;;;;;4985825;28;20046;-58
2022/04/30 12:12:18;;;;;;;8.75;4.63;;;15.00;91.70;;;;;;4983872;28;20471;-56
2022/04/30 12:14:47;;;;;;;12.45;6.07;;;15.00;90.80;;;;;;4979956;28;20043;-58
2022/04/30 12:17:13;;;;;;;11.15;4.28;;;15.10;91.40;;;;;;4980838;28;20568;-56
2022/04/30 12:25:33;;;;;;;8.40;4.05;;;15.30;90.10;;;;;;4956442;28;20063;-57
2022/04/30 12:28:06;;;;;;;6.07;3.80;;;15.20;90.80;;;;;;4960571;28;20133;-59
2022/04/30 12:30:53;;;;;;;7.85;4.50;;;15.30;90.00;;;;;;4976960;28;20568;-58
2022/04/30 12:33:20;;;;;;;9.00;3.97;;;15.20;88.80;;;;;;4986458;28;20054;-58
2022/04/30 12:35:57;;;;;;;10.57;3.53;;;15.30;90.20;;;;;;4987227;28;20050;-57
2022/04/30 12:38:24;;;;;;;9.40;3.47;;;15.40;85.10;;;;;;4986921;28;20145;-56
2022/04/30 12:40:51;;;;;;;9.07;3.58;;;15.40;89.30;;;;;;4986140;28;20120;-56
2022/04/30 12:43:19;;;;;;;6.72;3.15;;;15.50;88.60;;;;;;4986433;28;20473;-58
2022/04/30 12:45:47;;;;;;;7.68;3.10;;;15.40;88.50;;;;;;4986083;28;20089;-55
2022/04/30 12:48:15;;;;;;;5.65;3.67;;;15.50;87.40;;;;;;4987149;28;20096;-55
2022/04/30 12:50:41;;;;;;;11.20;3.65;;;15.70;88.90;;;;;;4987039;28;20613;-57
2022/04/30 12:53:11;;;;;;;8.13;3.60;;;15.90;87.90;;;;;;4985825;28;20509;-57
2022/04/30 12:55:41;;;;;;;9.88;3.75;;;16.00;88.00;;;;;;4984616;28;20046;-60
2022/04/30 12:58:09;;;;;;;7.90;4.38;;;16.20;84.50;;;;;;4986277;28;20047;-57
2022/04/30 13:00:36;;;;;;;6.20;2.88;;;16.10;83.30;;;;;;4986188;28;20062;-59
2022/04/30 13:03:03;;;;;;;7.95;3.75;;;16.00;86.20;;;;;;4985730;28;20066;-57
2022/04/30 13:05:30;;;;;;;8.90;4.28;;;16.00;81.90;;;;;;4996728;28;20046;-56
2022/04/30 13:07:57;;;;;;;6.53;4.18;;;16.10;82.80;;;;;;4971943;28;20101;-57
2022/04/30 13:13:31;;;;;;;6.32;3.65;;;16.20;86.00;;;;;;4985691;28;20073;-57
2022/04/30 13:16:00;;;;;;;7.15;3.40;;;16.40;84.80;;;;;;4984554;28;20132;-57
2022/04/30 13:18:28;;;;;;;11.50;4.40;;;16.60;85.70;;;;;;4985809;28;20046;-57
2022/04/30 13:20:55;;;;;;;6.25;3.47;;;16.80;84.30;;;;;;4984918;28;20141;-57
2022/04/30 13:23:22;;;;;;;6.82;3.80;;;16.80;82.90;;;;;;4985778;28;20461;-57
2022/04/30 13:25:48;;;;;;;9.88;5.85;;;16.90;82.50;;;;;;4976508;28;20077;-58
2022/04/30 13:28:15;;;;;;;6.70;3.70;;;16.80;78.00;;;;;;4968049;28;20113;-58
2022/04/30 13:30:42;;;;;;;7.40;4.13;;;16.70;81.30;;;;;;4985163;28;20141;-58
2022/04/30 13:33:09;;;;;;;12.65;3.90;;;16.70;82.90;;;;;;4984737;28;20051;-58
2022/04/30 13:35:35;;;;;;;6.20;3.60;;;16.90;82.60;;;;;;4984362;28;20065;-59
2022/04/30 13:38:02;;;;;;;6.95;4.28;;;17.00;80.80;;;;;;4983428;28;20121;-55
2022/04/30 13:40:29;;;;;;;8.57;4.88;;;17.10;81.70;;;;;;4983117;28;20050;-56
2022/04/30 13:42:56;;;;;;;6.65;3.95;;;17.30;81.20;;;;;;4984746;28;20100;-59
2022/04/30 13:45:24;;;;;;;6.28;4.25;;;17.20;79.40;;;;;;4983914;28;20116;-57
2022/04/30 13:47:51;;;;;;;7.65;4.47;;;17.00;81.40;;;;;;4983332;28;20053;-57